Airfield :
LOGIN :

Register | Disclaimer

   EN    FR    IT 

 










Legend :    VFR   Marginal VFR   IFR   Intensive IFR   Very Intensive IFR
Visi :
Ceiling :
>= 8 km
>= 3000ft
5 to 8 km
1000 to 3000 ft
1500m to 5 km
500 to 1000 ft
800 to 1500m
200 to 500 ft
< 800m
< 200 ft
Symbols :   Thunderstorms  Fog  Heavy snow  Heavy precipitations  Wind > 20 kt
SIGMETs :     Misc.  Thunderstorms  Icing  Turbulence  Mountain Waves  Volcanic Ashes






- Airport Elevation : 1947 ft
- IATA code : OBF


EDMO - Oberpfaffenhofen

CURRENT METAR :
  • 022150Z AUTO 15004KT 9999 // FEW230/// 12/07 Q1013

EXPIRED METARs :
  • 022120Z AUTO 16005KT 9999 // NCD 10/07 Q1013
  • 022050Z AUTO 15003KT 9999 // NCD 12/07 Q1014
  • 022020Z AUTO 16005KT 9999 // NCD 11/07 Q1014
  • 021950Z AUTO 16005KT 9999 // NCD 12/08 Q1014
  • 021920Z AUTO 16003KT 9999 // NCD 15/07 Q1014

TAF TAF EDMO
Valid from the 02 at 18:00 until the 03 at 03:00 UTC


021700Z 0218/0303 02005KT CAVOK
BECMG 0218/0220 VRB03KT



MET'MAP, your aeronautical weather chart ! - Copyright ORBIFLY December 2007 - Disclaimer

ORBIFLY MET'MAP TEAM :

Programming & Development : Alexandra Zaïnal
Concept & original design : Baudouin d'Aumeries
Assistance for programming : Marc-Olivier Méhu
Technical & hardware support : Manuel Goepfert

Contact : metmap@orbifly.com




SOURCES & CREDITS :

   NOAA